Time;durP1;ratioP1;P1;durP2;ratioP2;P2;SDS_P1;SDS_P2;PMS_P1;PMS_P2;Temp;Humidity;BMP_temperature;BMP_pressure;BME280_temperature;BME280_humidity;BME280_pressure;Samples;Min_cycle;Max_cycle;Signal;HPM_P1;HPM_P2
2023/10/25 00:01:16;;;;;;;1.67;0.75;;;17.30;61.80;;;;;;5128983;27;46370;-74
2023/10/25 00:03:43;;;;;;;1.60;0.70;;;17.30;61.70;;;;;;5129057;27;45195;-74
2023/10/25 00:06:10;;;;;;;0.60;0.60;;;17.20;61.60;;;;;;5128986;27;45328;-74
2023/10/25 00:08:37;;;;;;;0.65;0.60;;;17.20;61.70;;;;;;5129041;27;45448;-74
2023/10/25 00:11:06;;;;;;;2.22;0.80;;;17.20;61.70;;;;;;5128941;27;46270;-74
2023/10/25 00:13:33;;;;;;;0.57;0.57;;;17.20;61.70;;;;;;5128707;27;45206;-73
2023/10/25 00:16:00;;;;;;;0.90;0.70;;;17.20;61.70;;;;;;5128254;27;45210;-74
2023/10/25 00:18:27;;;;;;;0.82;0.70;;;17.20;61.70;;;;;;5129074;27;45283;-74
2023/10/25 00:20:54;;;;;;;0.73;0.47;;;17.20;61.70;;;;;;5128623;27;46406;-74
2023/10/25 00:23:21;;;;;;;0.52;0.52;;;17.20;61.70;;;;;;5128947;27;45262;-74
2023/10/25 00:25:48;;;;;;;0.57;0.57;;;17.20;61.70;;;;;;5128912;27;45347;-74
2023/10/25 00:28:22;;;;;;;0.82;0.70;;;17.20;61.60;;;;;;5128856;27;45406;-74
2023/10/25 00:30:48;;;;;;;0.50;0.50;;;17.20;61.60;;;;;;5128361;27;46274;-74
2023/10/25 00:33:16;;;;;;;0.90;0.68;;;17.20;61.60;;;;;;5128344;27;45301;-74
2023/10/25 00:35:42;;;;;;;0.45;0.45;;;17.20;61.60;;;;;;5128754;27;45226;-74
2023/10/25 00:38:09;;;;;;;0.82;0.70;;;17.20;61.60;;;;;;5128856;27;45370;-74
2023/10/25 00:40:37;;;;;;;0.50;0.50;;;17.10;61.50;;;;;;5128293;27;45371;-73
2023/10/25 00:43:15;;;;;;;0.57;0.57;;;17.10;61.50;;;;;;5128378;27;45160;-73
2023/10/25 00:46:00;;;;;;;0.50;0.50;;;17.10;61.60;;;;;;5128485;27;45285;-73
2023/10/25 00:48:27;;;;;;;0.50;0.50;;;17.10;61.70;;;;;;5128632;27;45459;-74
2023/10/25 00:50:54;;;;;;;0.57;0.57;;;17.10;61.60;;;;;;5128193;27;45366;-74
2023/10/25 00:53:21;;;;;;;0.43;0.43;;;17.10;61.50;;;;;;5128255;27;45181;-73
2023/10/25 00:55:48;;;;;;;1.35;0.70;;;17.10;61.50;;;;;;5128406;27;45269;-74
2023/10/25 00:58:15;;;;;;;0.90;0.60;;;17.10;61.50;;;;;;5128352;27;45386;-74
2023/10/25 01:00:43;;;;;;;0.50;0.50;;;17.10;61.60;;;;;;5127877;27;48002;-73
2023/10/25 01:03:10;;;;;;;0.50;0.50;;;17.10;61.50;;;;;;5128108;27;45252;-73
2023/10/25 01:05:37;;;;;;;0.45;0.45;;;17.10;61.40;;;;;;5128105;27;45201;-73
2023/10/25 01:08:04;;;;;;;0.40;0.40;;;17.00;61.30;;;;;;5127775;27;45402;-71
2023/10/25 01:10:31;;;;;;;0.60;0.60;;;17.00;61.50;;;;;;5108971;27;45576;-73
2023/10/25 01:12:57;;;;;;;0.40;0.40;;;17.00;61.30;;;;;;5107411;27;45344;-73
2023/10/25 01:15:24;;;;;;;1.23;0.50;;;17.00;62.10;;;;;;5107387;27;45275;-73
2023/10/25 01:17:52;;;;;;;0.40;0.40;;;17.00;61.40;;;;;;5108943;27;45225;-73
2023/10/25 01:20:19;;;;;;;0.45;0.45;;;17.00;61.30;;;;;;5110803;27;46724;-73
2023/10/25 01:22:48;;;;;;;0.40;0.40;;;17.00;61.40;;;;;;5110890;27;45273;-73
2023/10/25 01:25:15;;;;;;;0.45;0.45;;;17.00;61.40;;;;;;5110798;27;45323;-73
2023/10/25 01:27:42;;;;;;;0.50;0.50;;;16.90;61.40;;;;;;5110994;27;45516;-73
2023/10/25 01:30:10;;;;;;;0.68;0.68;;;16.90;61.50;;;;;;5110681;27;46391;-73
2023/10/25 01:32:37;;;;;;;0.50;0.50;;;16.90;61.50;;;;;;5110576;27;45342;-73
2023/10/25 01:35:04;;;;;;;0.47;0.47;;;16.90;61.50;;;;;;5111208;27;45308;-73
2023/10/25 01:37:31;;;;;;;0.40;0.40;;;16.80;61.60;;;;;;5130673;27;45403;-73
2023/10/25 01:39:59;;;;;;;0.50;0.50;;;16.80;61.50;;;;;;5131188;27;45178;-73
2023/10/25 01:42:26;;;;;;;0.43;0.43;;;16.90;61.60;;;;;;5131280;27;45228;-73
2023/10/25 01:44:53;;;;;;;0.98;0.60;;;16.80;61.40;;;;;;5131595;27;45258;-73
2023/10/25 01:47:19;;;;;;;0.40;0.40;;;16.80;61.50;;;;;;5131256;27;45208;-73
2023/10/25 01:49:46;;;;;;;0.60;0.60;;;16.80;61.40;;;;;;5131162;27;46558;-73
2023/10/25 01:52:13;;;;;;;0.47;0.47;;;16.80;61.40;;;;;;5130434;27;45235;-73
2023/10/25 01:54:40;;;;;;;0.40;0.40;;;16.80;61.40;;;;;;5131253;27;45205;-73
2023/10/25 01:57:08;;;;;;;0.40;0.40;;;16.80;61.40;;;;;;5131418;27;45304;-73
2023/10/25 01:59:35;;;;;;;0.50;0.50;;;16.80;61.40;;;;;;5130949;27;45479;-73
2023/10/25 02:02:02;;;;;;;0.40;0.40;;;16.70;61.20;;;;;;5128293;27;45286;-73
2023/10/25 02:04:28;;;;;;;0.40;0.40;;;16.70;61.30;;;;;;5131125;27;45282;-73
2023/10/25 02:06:55;;;;;;;0.75;0.50;;;16.70;61.40;;;;;;5131171;27;45184;-73
2023/10/25 02:09:22;;;;;;;0.50;0.50;;;16.70;61.40;;;;;;5130666;27;46396;-73
2023/10/25 02:11:49;;;;;;;0.40;0.40;;;16.70;61.30;;;;;;5128113;27;45358;-73
2023/10/25 02:14:17;;;;;;;0.65;0.52;;;16.70;61.30;;;;;;5130914;27;45261;-73
2023/10/25 02:16:44;;;;;;;0.73;0.52;;;16.70;61.20;;;;;;5131266;27;45187;-73
2023/10/25 02:19:11;;;;;;;0.40;0.40;;;16.70;61.20;;;;;;5130747;27;47254;-73
2023/10/25 02:21:38;;;;;;;0.43;0.43;;;16.70;61.20;;;;;;5130562;27;45280;-73
2023/10/25 02:24:05;;;;;;;0.52;0.52;;;16.70;61.20;;;;;;5130805;27;45296;-73
2023/10/25 02:26:32;;;;;;;0.43;0.43;;;16.70;61.20;;;;;;5130731;27;45366;-73
2023/10/25 02:28:59;;;;;;;0.40;0.40;;;16.70;61.20;;;;;;5130385;27;46384;-73
2023/10/25 02:31:27;;;;;;;0.32;0.32;;;16.70;61.20;;;;;;5130423;27;45217;-72
2023/10/25 02:33:53;;;;;;;0.40;0.40;;;16.70;61.10;;;;;;5130233;27;45341;-72
2023/10/25 02:36:20;;;;;;;0.38;0.38;;;16.70;61.00;;;;;;5130336;27;45489;-72
2023/10/25 02:38:48;;;;;;;0.43;0.40;;;16.70;61.00;;;;;;5130540;27;46500;-73
2023/10/25 02:41:15;;;;;;;1.65;0.40;;;16.70;61.00;;;;;;5130444;27;45177;-73
2023/10/25 02:43:42;;;;;;;0.60;0.57;;;16.70;61.00;;;;;;5130649;27;45445;-73
2023/10/25 02:46:09;;;;;;;0.50;0.50;;;16.70;61.00;;;;;;5129790;27;45390;-73
2023/10/25 02:48:37;;;;;;;0.52;0.38;;;16.70;61.00;;;;;;5109455;27;45626;-73
2023/10/25 02:51:04;;;;;;;0.30;0.30;;;16.70;61.00;;;;;;5109610;27;45283;-73
2023/10/25 02:53:31;;;;;;;0.73;0.50;;;16.70;61.00;;;;;;5109650;27;45262;-73
2023/10/25 02:56:01;;;;;;;0.43;0.43;;;16.70;61.00;;;;;;5110080;27;45581;-73
2023/10/25 02:58:28;;;;;;;0.40;0.40;;;16.70;60.90;;;;;;5109306;27;45544;-73
2023/10/25 03:00:56;;;;;;;0.50;0.30;;;16.70;60.90;;;;;;5109337;27;45247;-72
2023/10/25 03:03:23;;;;;;;0.30;0.30;;;16.70;60.90;;;;;;5109465;27;45338;-73
2023/10/25 03:05:51;;;;;;;0.50;0.50;;;16.70;60.90;;;;;;5109652;27;45379;-73
2023/10/25 03:08:18;;;;;;;0.60;0.60;;;16.70;60.80;;;;;;5109137;27;45474;-73
2023/10/25 03:10:44;;;;;;;0.32;0.32;;;16.70;60.80;;;;;;5109273;27;45161;-73
2023/10/25 03:13:11;;;;;;;0.88;0.50;;;16.70;60.80;;;;;;5109269;27;45330;-72
2023/10/25 03:15:38;;;;;;;0.35;0.35;;;16.70;61.50;;;;;;5109428;27;45375;-72
2023/10/25 03:18:05;;;;;;;0.40;0.40;;;16.60;60.80;;;;;;5108867;27;45325;-72
2023/10/25 03:20:33;;;;;;;0.35;0.30;;;16.60;60.80;;;;;;5108277;27;45282;-73
2023/10/25 03:23:01;;;;;;;0.43;0.43;;;16.60;60.80;;;;;;5109067;27;45199;-72
2023/10/25 03:25:28;;;;;;;0.38;0.38;;;16.60;60.70;;;;;;5124545;27;45345;-73
2023/10/25 03:27:55;;;;;;;0.30;0.30;;;16.60;60.70;;;;;;5129373;27;48341;-72
2023/10/25 03:30:21;;;;;;;0.32;0.32;;;16.60;60.70;;;;;;5129483;27;45403;-73
2023/10/25 03:32:48;;;;;;;0.45;0.45;;;16.60;60.70;;;;;;5129407;27;45176;-73
2023/10/25 03:35:15;;;;;;;0.40;0.40;;;16.60;60.80;;;;;;5130157;27;45176;-72
2023/10/25 03:37:42;;;;;;;0.40;0.40;;;16.60;60.80;;;;;;5129488;27;45265;-73
2023/10/25 03:40:12;;;;;;;0.40;0.40;;;16.60;60.70;;;;;;5129004;27;45424;-73
2023/10/25 03:42:38;;;;;;;0.45;0.40;;;16.60;60.60;;;;;;5129490;27;45199;-72
2023/10/25 03:45:07;;;;;;;0.35;0.35;;;16.60;60.70;;;;;;5129656;27;45184;-73
2023/10/25 03:47:34;;;;;;;0.55;0.40;;;16.60;60.60;;;;;;5129477;27;47817;-73
2023/10/25 03:50:02;;;;;;;0.50;0.47;;;16.60;60.60;;;;;;5129229;27;45329;-72
2023/10/25 03:52:29;;;;;;;0.30;0.30;;;16.60;60.60;;;;;;5131193;27;45202;-72
2023/10/25 03:54:56;;;;;;;0.30;0.30;;;16.60;60.50;;;;;;5130164;27;45178;-73
2023/10/25 03:57:25;;;;;;;0.40;0.40;;;16.60;60.50;;;;;;5134435;27;45607;-73
2023/10/25 03:59:52;;;;;;;0.40;0.40;;;16.60;60.50;;;;;;5137317;27;45322;-72
2023/10/25 04:02:19;;;;;;;2.47;0.50;;;16.60;60.50;;;;;;5131380;27;45305;-71
2023/10/25 04:04:46;;;;;;;0.50;0.50;;;16.60;60.40;;;;;;5127105;27;45243;-73
2023/10/25 04:07:12;;;;;;;0.45;0.45;;;16.60;60.50;;;;;;5129822;27;45202;-72
2023/10/25 04:09:39;;;;;;;0.40;0.40;;;16.60;60.50;;;;;;5129415;27;45527;-73
2023/10/25 04:12:11;;;;;;;0.35;0.35;;;16.60;60.50;;;;;;5129002;27;45393;-72
2023/10/25 04:14:42;;;;;;;0.28;0.28;;;16.60;60.50;;;;;;5129626;27;45427;-72
2023/10/25 04:17:09;;;;;;;0.30;0.30;;;16.60;60.50;;;;;;5128957;27;45530;-72
2023/10/25 04:19:36;;;;;;;0.40;0.40;;;16.60;60.50;;;;;;5128702;27;45238;-72
2023/10/25 04:22:03;;;;;;;0.43;0.43;;;16.60;60.50;;;;;;5129116;27;45321;-72
2023/10/25 04:24:30;;;;;;;0.30;0.30;;;16.50;60.40;;;;;;5121820;27;45311;-72
2023/10/25 04:26:56;;;;;;;0.50;0.50;;;16.50;60.40;;;;;;5107836;27;46406;-71
2023/10/25 04:29:23;;;;;;;0.35;0.35;;;16.50;60.40;;;;;;5107985;27;45306;-73
2023/10/25 04:31:51;;;;;;;0.30;0.30;;;16.50;60.30;;;;;;5108420;27;45195;-73
2023/10/25 04:34:18;;;;;;;0.40;0.40;;;16.50;60.40;;;;;;5107918;27;45336;-73
2023/10/25 04:36:45;;;;;;;1.90;0.50;;;16.50;60.30;;;;;;5107823;27;47208;-73
2023/10/25 04:39:12;;;;;;;1.88;0.40;;;16.50;60.40;;;;;;5107907;27;45374;-73
2023/10/25 04:41:39;;;;;;;0.40;0.40;;;16.50;60.40;;;;;;5107923;27;45188;-73
2023/10/25 04:44:06;;;;;;;0.50;0.38;;;16.50;60.30;;;;;;5108553;27;45256;-73
2023/10/25 04:46:33;;;;;;;0.20;0.20;;;16.50;60.30;;;;;;5108265;27;46415;-72
2023/10/25 04:49:02;;;;;;;0.68;0.38;;;16.50;60.40;;;;;;5106820;27;45225;-73
2023/10/25 04:51:29;;;;;;;0.20;0.20;;;16.50;60.30;;;;;;5106905;27;45230;-73
2023/10/25 04:53:56;;;;;;;0.15;0.15;;;16.50;60.30;;;;;;5107166;27;45264;-73
2023/10/25 04:56:23;;;;;;;0.43;0.20;;;16.50;60.30;;;;;;5107677;27;45188;-71
2023/10/25 04:58:50;;;;;;;0.40;0.40;;;16.50;60.20;;;;;;5107577;27;45372;-73
2023/10/25 05:01:17;;;;;;;0.50;0.43;;;16.50;60.20;;;;;;5107769;27;45326;-73
2023/10/25 05:03:44;;;;;;;0.45;0.30;;;16.50;60.20;;;;;;5123323;27;45260;-73
2023/10/25 05:06:13;;;;;;;0.40;0.40;;;16.40;60.10;;;;;;5128061;27;45194;-73
2023/10/25 05:08:40;;;;;;;0.40;0.40;;;16.40;60.10;;;;;;5128141;27;45352;-73
2023/10/25 05:11:08;;;;;;;0.45;0.45;;;16.40;60.90;;;;;;5128278;27;45316;-73
2023/10/25 05:13:35;;;;;;;0.32;0.32;;;16.40;60.10;;;;;;5128341;27;45418;-73
2023/10/25 05:16:04;;;;;;;0.82;0.47;;;16.40;60.20;;;;;;5127956;27;46936;-73
2023/10/25 05:18:31;;;;;;;0.40;0.40;;;16.40;60.10;;;;;;5128078;27;45251;-73
2023/10/25 05:20:59;;;;;;;0.30;0.30;;;16.40;60.20;;;;;;5128049;27;45277;-73
2023/10/25 05:23:30;;;;;;;0.20;0.20;;;16.40;60.10;;;;;;5128287;27;45224;-73
2023/10/25 05:25:58;;;;;;;0.30;0.30;;;16.40;60.10;;;;;;5127657;27;46280;-73
2023/10/25 05:28:26;;;;;;;0.30;0.30;;;16.40;60.10;;;;;;5127772;27;45250;-73
2023/10/25 05:30:54;;;;;;;0.38;0.38;;;16.40;60.10;;;;;;5127841;27;45270;-73
2023/10/25 05:33:21;;;;;;;1.27;0.50;;;16.30;60.00;;;;;;5127738;27;45511;-72
2023/10/25 05:35:48;;;;;;;0.30;0.30;;;16.30;60.00;;;;;;5126551;27;46453;-72
2023/10/25 05:38:16;;;;;;;0.70;0.30;;;16.30;60.00;;;;;;5127656;27;45593;-72
2023/10/25 05:40:44;;;;;;;0.30;0.30;;;16.30;60.00;;;;;;5127804;27;45183;-72
2023/10/25 05:43:13;;;;;;;0.35;0.35;;;16.30;60.00;;;;;;5127974;27;45300;-72
2023/10/25 05:45:42;;;;;;;0.30;0.30;;;16.30;60.00;;;;;;5127427;27;46700;-72
2023/10/25 05:48:11;;;;;;;0.77;0.40;;;16.30;60.00;;;;;;5127491;27;45374;-71
2023/10/25 05:50:38;;;;;;;0.50;0.50;;;16.30;60.00;;;;;;5127730;27;45373;-72
2023/10/25 05:53:06;;;;;;;0.40;0.40;;;16.30;60.00;;;;;;5127563;27;45195;-72
2023/10/25 05:55:33;;;;;;;0.30;0.30;;;16.30;60.00;;;;;;5127540;27;46376;-72
2023/10/25 05:58:02;;;;;;;0.43;0.43;;;16.30;60.10;;;;;;5127371;27;45428;-72
2023/10/25 06:00:29;;;;;;;0.47;0.47;;;16.30;60.10;;;;;;5127572;27;45347;-72
2023/10/25 06:02:57;;;;;;;0.50;0.47;;;16.30;60.00;;;;;;5119153;27;45241;-72
2023/10/25 06:05:24;;;;;;;0.43;0.40;;;16.30;60.00;;;;;;5110189;27;45279;-72
2023/10/25 06:07:51;;;;;;;0.47;0.40;;;16.30;60.00;;;;;;5110046;27;45235;-73
2023/10/25 06:10:19;;;;;;;0.40;0.40;;;16.30;60.00;;;;;;5110659;27;45438;-72
2023/10/25 06:12:46;;;;;;;0.47;0.47;;;16.20;59.90;;;;;;5110066;27;45168;-72
2023/10/25 06:15:15;;;;;;;0.60;0.57;;;16.30;60.00;;;;;;5110404;27;46713;-72
2023/10/25 06:17:41;;;;;;;0.60;0.40;;;16.20;59.90;;;;;;5110374;27;45362;-72
2023/10/25 06:20:10;;;;;;;0.50;0.50;;;16.20;59.90;;;;;;5110241;27;45300;-73
2023/10/25 06:22:36;;;;;;;0.60;0.60;;;16.20;59.90;;;;;;5109909;27;45176;-70
2023/10/25 06:25:05;;;;;;;0.50;0.50;;;16.20;59.90;;;;;;5109685;27;45605;-72
2023/10/25 06:27:31;;;;;;;0.57;0.50;;;16.20;59.90;;;;;;5109855;27;45306;-72
2023/10/25 06:29:58;;;;;;;0.50;0.50;;;16.20;59.90;;;;;;5110225;27;45287;-71
2023/10/25 06:32:26;;;;;;;0.45;0.45;;;16.20;59.80;;;;;;5109997;27;45134;-72
2023/10/25 06:34:53;;;;;;;0.80;0.65;;;16.20;59.80;;;;;;5109573;27;46491;-72
2023/10/25 06:37:21;;;;;;;0.50;0.50;;;16.20;59.80;;;;;;5127773;27;45302;-72
2023/10/25 06:39:49;;;;;;;0.50;0.50;;;16.20;59.80;;;;;;5130181;27;45409;-71
2023/10/25 06:42:16;;;;;;;0.40;0.40;;;16.20;59.80;;;;;;5130584;27;45381;-72
2023/10/25 06:44:44;;;;;;;1.65;0.40;;;16.20;59.70;;;;;;5130325;27;46398;-72
2023/10/25 06:47:11;;;;;;;0.40;0.40;;;16.20;59.70;;;;;;5130559;27;45369;-73
2023/10/25 06:49:40;;;;;;;1.15;0.50;;;16.20;59.80;;;;;;5130373;27;45298;-72
2023/10/25 06:52:08;;;;;;;0.30;0.30;;;16.30;59.70;;;;;;5130633;27;45504;-72
2023/10/25 06:54:35;;;;;;;0.50;0.50;;;16.30;59.70;;;;;;5130146;27;46364;-73
2023/10/25 06:57:03;;;;;;;2.65;0.70;;;16.30;59.70;;;;;;5130109;27;45333;-72
2023/10/25 06:59:30;;;;;;;0.75;0.35;;;16.30;59.60;;;;;;5130277;27;45240;-73
2023/10/25 07:02:17;;;;;;;0.80;0.68;;;16.30;59.70;;;;;;5130679;27;45460;-72
2023/10/25 07:04:45;;;;;;;0.70;0.70;;;16.30;59.70;;;;;;5127319;27;46392;-72
2023/10/25 07:07:12;;;;;;;0.50;0.50;;;16.30;59.60;;;;;;5130018;27;45337;-72
2023/10/25 07:09:41;;;;;;;0.43;0.43;;;16.30;59.60;;;;;;5129924;27;45299;-72
2023/10/25 07:12:08;;;;;;;0.98;0.60;;;16.30;59.60;;;;;;5130300;27;45143;-72
2023/10/25 07:14:35;;;;;;;0.80;0.50;;;16.30;59.70;;;;;;5128655;27;45556;-72
2023/10/25 07:17:01;;;;;;;2.63;1.00;;;16.30;59.70;;;;;;5129411;27;45349;-71
2023/10/25 07:19:28;;;;;;;0.50;0.50;;;16.30;59.70;;;;;;5129982;27;45297;-73
2023/10/25 07:21:56;;;;;;;0.55;0.40;;;16.30;60.40;;;;;;5130032;27;45327;-72
2023/10/25 07:24:23;;;;;;;0.60;0.60;;;16.30;59.70;;;;;;5129590;27;46212;-72
2023/10/25 07:26:50;;;;;;;0.50;0.50;;;16.30;59.70;;;;;;5129923;27;45302;-72
2023/10/25 07:29:17;;;;;;;1.00;0.50;;;16.30;59.70;;;;;;5127045;27;45337;-72
2023/10/25 07:31:44;;;;;;;0.70;0.60;;;16.30;59.70;;;;;;5129781;27;45408;-72
2023/10/25 07:34:10;;;;;;;1.30;0.50;;;16.30;59.70;;;;;;5129362;27;45493;-72
2023/10/25 07:36:37;;;;;;;0.75;0.70;;;16.30;59.70;;;;;;5129748;27;45240;-72
2023/10/25 07:39:06;;;;;;;1.05;0.70;;;16.30;59.70;;;;;;5129597;27;45191;-72
2023/10/25 07:41:33;;;;;;;0.45;0.45;;;16.40;59.80;;;;;;5116147;27;45387;-72
2023/10/25 07:44:01;;;;;;;0.75;0.70;;;16.40;59.70;;;;;;5108587;27;46269;-72
2023/10/25 07:46:27;;;;;;;0.88;0.57;;;16.40;59.70;;;;;;5108961;27;45204;-73
2023/10/25 07:48:54;;;;;;;2.08;0.80;;;16.40;59.60;;;;;;5108680;27;45179;-73
2023/10/25 07:51:21;;;;;;;0.80;0.70;;;16.40;59.60;;;;;;5109105;27;45286;-72
2023/10/25 07:53:48;;;;;;;2.10;0.70;;;16.40;59.60;;;;;;5108559;27;45354;-72
2023/10/25 07:56:17;;;;;;;0.82;0.75;;;16.40;59.70;;;;;;5108330;27;46030;-73
2023/10/25 07:58:44;;;;;;;2.03;0.70;;;16.50;60.20;;;;;;5108011;27;45319;-71
2023/10/25 08:01:11;;;;;;;17.08;1.33;;;16.50;61.00;;;;;;5108532;27;45280;-71
2023/10/25 08:03:38;;;;;;;2.67;1.55;;;16.50;61.90;;;;;;5108306;27;45286;-71
2023/10/25 08:06:05;;;;;;;2.28;1.00;;;16.50;60.60;;;;;;5116227;27;45237;-73
2023/10/25 08:08:32;;;;;;;1.42;1.20;;;16.60;61.40;;;;;;5120235;27;45292;-73
2023/10/25 08:11:02;;;;;;;0.80;0.80;;;16.60;60.70;;;;;;5118793;27;45422;-73
2023/10/25 08:13:30;;;;;;;3.17;2.53;;;16.70;60.60;;;;;;5122521;27;45670;-76
2023/10/25 08:15:57;;;;;;;3.17;1.65;;;16.80;61.30;;;;;;5119686;27;45208;-73
2023/10/25 08:18:24;;;;;;;9.20;8.30;;;16.80;61.10;;;;;;5119633;27;45287;-73
2023/10/25 08:20:51;;;;;;;9.90;8.63;;;16.90;61.80;;;;;;5120146;27;45413;-72
2023/10/25 08:23:18;;;;;;;8.10;7.30;;;16.90;61.90;;;;;;5127166;27;45627;-75
2023/10/25 08:25:45;;;;;;;5.75;3.67;;;17.00;61.20;;;;;;5128871;27;45269;-69
2023/10/25 08:28:12;;;;;;;7.43;5.70;;;17.00;61.20;;;;;;5126867;27;46326;-72
2023/10/25 08:30:40;;;;;;;6.32;4.80;;;17.20;61.20;;;;;;5128751;27;45523;-71
2023/10/25 08:33:07;;;;;;;4.63;4.22;;;17.30;61.20;;;;;;5126205;27;45509;-76
2023/10/25 08:35:34;;;;;;;6.72;5.53;;;17.40;61.20;;;;;;5108858;27;45335;-67
2023/10/25 08:38:01;;;;;;;9.10;8.20;;;17.50;60.20;;;;;;5127097;27;45192;-73
2023/10/25 08:40:28;;;;;;;11.80;10.38;;;17.60;60.10;;;;;;5123860;27;45467;-73
2023/10/25 08:42:54;;;;;;;17.05;15.35;;;17.70;59.70;;;;;;5109532;27;45250;-72
2023/10/25 08:45:22;;;;;;;19.73;16.58;;;17.80;59.40;;;;;;5107208;27;45363;-72
2023/10/25 08:47:50;;;;;;;18.30;16.13;;;17.90;59.20;;;;;;5120511;27;45377;-74
2023/10/25 08:50:19;;;;;;;14.65;12.88;;;18.00;58.90;;;;;;5126310;27;45244;-71
2023/10/25 08:52:49;;;;;;;10.48;9.13;;;18.10;59.10;;;;;;5129187;27;46463;-75
2023/10/25 08:55:17;;;;;;;9.35;7.63;;;18.10;58.40;;;;;;5128076;27;45262;-71
2023/10/25 08:57:43;;;;;;;10.00;7.35;;;18.20;58.30;;;;;;5128280;27;45301;-71
2023/10/25 09:00:12;;;;;;;8.38;7.18;;;18.20;58.80;;;;;;5128431;27;45278;-70
2023/10/25 09:02:38;;;;;;;7.72;6.80;;;18.30;59.00;;;;;;5127857;27;46397;-70
2023/10/25 09:05:07;;;;;;;8.98;6.55;;;18.30;58.80;;;;;;5125071;27;45362;-71
2023/10/25 09:07:35;;;;;;;7.90;7.07;;;18.40;58.80;;;;;;5128091;27;45173;-70
2023/10/25 09:10:03;;;;;;;10.18;9.18;;;18.60;58.40;;;;;;5127882;27;45391;-72
2023/10/25 09:12:31;;;;;;;11.52;10.32;;;18.60;58.00;;;;;;5127939;27;46368;-70
2023/10/25 09:14:57;;;;;;;11.20;8.35;;;18.70;57.90;;;;;;5127768;27;45216;-69
2023/10/25 09:17:24;;;;;;;11.70;8.60;;;18.70;57.50;;;;;;5127824;27;45228;-70
2023/10/25 09:19:51;;;;;;;9.05;8.15;;;18.80;58.00;;;;;;5127905;27;45391;-72
2023/10/25 09:22:23;;;;;;;10.48;6.38;;;18.80;57.30;;;;;;5127501;27;46510;-73
2023/10/25 09:24:50;;;;;;;5.70;5.20;;;18.80;56.90;;;;;;5127036;27;45314;-74
2023/10/25 09:27:18;;;;;;;7.90;4.60;;;18.80;56.60;;;;;;5128007;27;45302;-71
2023/10/25 09:29:44;;;;;;;8.18;6.15;;;18.80;56.80;;;;;;5126953;27;45333;-68
2023/10/25 09:32:11;;;;;;;4.65;3.83;;;18.80;57.60;;;;;;5127449;27;45567;-73
2023/10/25 09:34:38;;;;;;;4.68;4.22;;;18.90;56.80;;;;;;5126943;27;45217;-70
2023/10/25 09:37:06;;;;;;;7.47;5.57;;;19.00;57.20;;;;;;5127560;27;45220;-70
2023/10/25 09:39:36;;;;;;;8.52;6.20;;;19.00;57.40;;;;;;5130070;27;45393;-70
2023/10/25 09:42:05;;;;;;;12.13;7.28;;;19.10;57.00;;;;;;5130965;27;45645;-71
2023/10/25 09:44:37;;;;;;;9.48;7.45;;;19.20;57.30;;;;;;5130940;27;45288;-75
2023/10/25 09:47:04;;;;;;;14.25;11.55;;;19.20;57.10;;;;;;5130572;27;45293;-71
2023/10/25 09:49:31;;;;;;;14.00;10.13;;;19.30;56.80;;;;;;5128678;27;45248;-69
2023/10/25 09:52:05;;;;;;;12.55;9.73;;;19.30;56.80;;;;;;5130549;27;45343;-71
2023/10/25 09:54:34;;;;;;;16.13;11.85;;;19.40;56.70;;;;;;5127869;27;45441;-70
2023/10/25 09:57:02;;;;;;;11.82;8.10;;;19.40;56.50;;;;;;5130717;27;45220;-74
2023/10/25 09:59:30;;;;;;;7.30;6.60;;;19.40;56.30;;;;;;5131295;27;45603;-72
2023/10/25 10:01:56;;;;;;;8.35;6.72;;;19.40;56.70;;;;;;5130413;27;45575;-67
2023/10/25 10:04:28;;;;;;;7.93;7.13;;;19.50;56.70;;;;;;5128701;27;45520;-70
2023/10/25 10:07:00;;;;;;;6.57;5.90;;;19.50;56.50;;;;;;5130560;27;45261;-72
2023/10/25 10:09:31;;;;;;;6.25;5.68;;;19.60;56.90;;;;;;5121112;27;45399;-72
2023/10/25 10:12:01;;;;;;;11.02;7.53;;;19.60;56.70;;;;;;5130174;27;45392;-73
2023/10/25 10:14:32;;;;;;;9.15;7.72;;;19.60;56.50;;;;;;5130125;27;45184;-71
2023/10/25 10:17:06;;;;;;;9.80;7.15;;;19.70;56.30;;;;;;5130188;27;45352;-68
2023/10/25 10:19:33;;;;;;;7.30;6.07;;;19.70;56.30;;;;;;5130330;27;45405;-73
2023/10/25 10:22:04;;;;;;;6.68;5.88;;;19.70;56.10;;;;;;5129524;27;46680;-73
2023/10/25 10:24:41;;;;;;;9.63;5.18;;;19.80;55.70;;;;;;5129160;27;45442;-73
2023/10/25 10:27:10;;;;;;;5.72;4.60;;;19.70;55.40;;;;;;5129239;27;45325;-73
2023/10/25 10:29:37;;;;;;;11.20;4.78;;;19.80;55.80;;;;;;5128875;27;45171;-75
2023/10/25 10:32:05;;;;;;;11.65;4.97;;;19.80;56.00;;;;;;5129113;27;46332;-75
2023/10/25 10:34:40;;;;;;;9.27;5.35;;;19.80;55.50;;;;;;5129235;27;45457;-74
2023/10/25 10:37:08;;;;;;;13.38;4.78;;;19.80;56.10;;;;;;5113932;27;45302;-74
2023/10/25 10:39:35;;;;;;;6.88;5.05;;;19.80;55.20;;;;;;5110537;27;45498;-72
2023/10/25 10:42:02;;;;;;;7.07;4.80;;;19.90;55.80;;;;;;5129251;27;46522;-75
2023/10/25 10:44:30;;;;;;;5.22;4.68;;;19.90;55.40;;;;;;5127502;27;45186;-72
2023/10/25 10:46:59;;;;;;;6.03;4.85;;;19.90;55.60;;;;;;5128877;27;45507;-73
2023/10/25 10:49:29;;;;;;;5.85;4.13;;;20.00;55.60;;;;;;5129375;27;45389;-71
2023/10/25 10:51:56;;;;;;;6.57;3.63;;;20.00;55.20;;;;;;5128751;27;46657;-69
2023/10/25 10:54:22;;;;;;;11.00;4.40;;;19.90;55.30;;;;;;5128714;27;45248;-69
2023/10/25 10:56:49;;;;;;;4.10;3.70;;;19.90;55.30;;;;;;5128457;27;45313;-69
2023/10/25 10:59:16;;;;;;;5.85;4.05;;;20.00;55.30;;;;;;5126833;27;45434;-68
2023/10/25 11:01:45;;;;;;;4.20;3.90;;;20.10;55.00;;;;;;5129434;27;45339;-68
2023/10/25 11:04:12;;;;;;;9.93;3.30;;;20.10;54.60;;;;;;5129211;27;45404;-68
2023/10/25 11:06:40;;;;;;;4.40;3.35;;;20.30;54.40;;;;;;5127390;27;45454;-69
2023/10/25 11:09:08;;;;;;;5.18;3.20;;;20.20;54.10;;;;;;5128838;27;45401;-71
2023/10/25 11:11:35;;;;;;;4.78;2.50;;;20.20;54.10;;;;;;5127949;27;45450;-71
2023/10/25 11:14:02;;;;;;;4.40;2.85;;;20.10;54.80;;;;;;5129091;27;45448;-71
2023/10/25 11:16:29;;;;;;;3.75;2.58;;;20.00;55.10;;;;;;5129569;27;45484;-72
2023/10/25 11:19:07;;;;;;;8.95;2.38;;;20.00;55.60;;;;;;5128606;27;45338;-71
2023/10/25 11:21:34;;;;;;;5.05;2.00;;;20.00;54.80;;;;;;5127446;27;46382;-72
2023/10/25 11:24:06;;;;;;;2.65;2.17;;;20.10;54.80;;;;;;5128196;27;45262;-72
2023/10/25 11:26:37;;;;;;;2.88;1.83;;;20.10;54.70;;;;;;5128636;27;45264;-75
2023/10/25 11:29:05;;;;;;;2.05;1.80;;;20.10;54.80;;;;;;5129186;27;45412;-71
2023/10/25 11:31:33;;;;;;;2.03;1.75;;;20.10;55.20;;;;;;5128749;27;45415;-67
2023/10/25 11:34:01;;;;;;;7.32;1.77;;;20.10;55.30;;;;;;5128560;27;45377;-71
2023/10/25 11:36:30;;;;;;;3.63;1.67;;;20.00;55.40;;;;;;5118776;27;45434;-72
2023/10/25 11:39:05;;;;;;;4.25;2.30;;;20.00;55.40;;;;;;5115077;27;45499;-72
2023/10/25 11:41:32;;;;;;;4.03;2.30;;;20.00;55.40;;;;;;5128722;27;46325;-75
2023/10/25 11:43:59;;;;;;;3.45;1.90;;;20.00;55.10;;;;;;5129209;27;45279;-73
2023/10/25 11:46:33;;;;;;;3.70;1.70;;;20.00;55.00;;;;;;5128801;27;45475;-73
2023/10/25 11:49:01;;;;;;;3.33;1.67;;;19.90;55.00;;;;;;5129486;27;45174;-73
2023/10/25 11:51:28;;;;;;;4.10;1.38;;;19.90;55.10;;;;;;5128936;27;46314;-72
2023/10/25 11:53:56;;;;;;;2.80;1.05;;;19.90;55.40;;;;;;5128912;27;45365;-70
2023/10/25 11:56:28;;;;;;;2.15;0.70;;;19.80;56.30;;;;;;5127970;27;45339;-73
2023/10/25 11:58:54;;;;;;;0.65;0.50;;;19.70;56.70;;;;;;5129498;27;45328;-74
2023/10/25 12:01:21;;;;;;;1.13;0.73;;;19.60;57.20;;;;;;5128463;27;46392;-73
2023/10/25 12:03:48;;;;;;;0.60;0.60;;;19.60;57.70;;;;;;5128976;27;45234;-75
2023/10/25 12:06:15;;;;;;;0.50;0.50;;;19.50;58.30;;;;;;5129055;27;45142;-73
2023/10/25 12:08:42;;;;;;;3.80;0.75;;;19.50;58.50;;;;;;5129056;27;45361;-74
2023/10/25 12:11:11;;;;;;;0.50;0.50;;;19.40;58.60;;;;;;5128681;27;46375;-73
2023/10/25 12:13:38;;;;;;;0.73;0.40;;;19.30;59.00;;;;;;5129027;27;45430;-74
2023/10/25 12:16:05;;;;;;;0.45;0.45;;;19.30;59.50;;;;;;5128418;27;45159;-74
2023/10/25 12:18:33;;;;;;;1.23;0.50;;;19.20;59.60;;;;;;5128910;27;45246;-74
2023/10/25 12:21:01;;;;;;;0.40;0.40;;;19.10;59.80;;;;;;5128354;27;45474;-74
2023/10/25 12:23:28;;;;;;;1.15;0.32;;;19.10;60.30;;;;;;5128343;27;45300;-73
2023/10/25 12:25:55;;;;;;;1.00;0.47;;;19.10;60.20;;;;;;5128375;27;45358;-73
2023/10/25 12:28:23;;;;;;;0.98;0.50;;;19.10;60.30;;;;;;5111321;27;45284;-74
2023/10/25 12:30:50;;;;;;;5.03;0.60;;;19.10;60.10;;;;;;5126765;27;47649;-74
2023/10/25 12:33:17;;;;;;;0.68;0.68;;;19.10;59.90;;;;;;5127656;27;45358;-73
2023/10/25 12:35:44;;;;;;;0.43;0.43;;;19.00;59.70;;;;;;5112372;27;45306;-73
2023/10/25 12:38:11;;;;;;;0.60;0.60;;;19.10;60.20;;;;;;5128019;27;45208;-74
2023/10/25 12:40:37;;;;;;;0.63;0.35;;;19.00;59.40;;;;;;5128016;27;46346;-74
2023/10/25 12:43:04;;;;;;;0.45;0.45;;;19.00;59.80;;;;;;5127919;27;45420;-75
2023/10/25 12:45:32;;;;;;;2.55;0.47;;;19.00;59.30;;;;;;5128433;27;45362;-74
2023/10/25 12:47:59;;;;;;;0.90;0.63;;;19.00;59.80;;;;;;5127090;27;45401;-74